sensor_id;sensor_type;location;lat;lon;timestamp;P1;durP1;ratioP1;P2;durP2;ratioP2
76610;SDS011;65503;48.534;9.062;2023-08-31T00:00:40;8.05;;;4.20;;
76610;SDS011;65503;48.534;9.062;2023-08-31T00:05:37;8.10;;;3.83;;
76610;SDS011;65503;48.534;9.062;2023-08-31T00:08:06;8.55;;;3.95;;
76610;SDS011;65503;48.534;9.062;2023-08-31T00:10:34;8.10;;;4.00;;
76610;SDS011;65503;48.534;9.062;2023-08-31T00:13:02;7.82;;;4.18;;
76610;SDS011;65503;48.534;9.062;2023-08-31T00:15:29;9.00;;;3.95;;
76610;SDS011;65503;48.534;9.062;2023-08-31T00:17:58;6.63;;;3.67;;
76610;SDS011;65503;48.534;9.062;2023-08-31T00:20:25;7.30;;;3.53;;
76610;SDS011;65503;48.534;9.062;2023-08-31T00:22:53;8.32;;;3.55;;
76610;SDS011;65503;48.534;9.062;2023-08-31T00:25:19;9.75;;;4.05;;
76610;SDS011;65503;48.534;9.062;2023-08-31T00:27:46;6.20;;;3.50;;
76610;SDS011;65503;48.534;9.062;2023-08-31T00:30:14;7.10;;;3.50;;
76610;SDS011;65503;48.534;9.062;2023-08-31T00:32:41;9.50;;;4.28;;
76610;SDS011;65503;48.534;9.062;2023-08-31T00:37:35;7.43;;;3.58;;
76610;SDS011;65503;48.534;9.062;2023-08-31T00:40:02;9.20;;;3.60;;
76610;SDS011;65503;48.534;9.062;2023-08-31T00:42:31;9.57;;;3.83;;
76610;SDS011;65503;48.534;9.062;2023-08-31T00:44:58;9.85;;;4.05;;
76610;SDS011;65503;48.534;9.062;2023-08-31T00:47:25;8.02;;;3.22;;
76610;SDS011;65503;48.534;9.062;2023-08-31T00:49:53;6.38;;;3.55;;
76610;SDS011;65503;48.534;9.062;2023-08-31T00:52:20;9.80;;;4.03;;
76610;SDS011;65503;48.534;9.062;2023-08-31T00:54:46;10.40;;;3.97;;
76610;SDS011;65503;48.534;9.062;2023-08-31T00:57:15;8.27;;;3.65;;
76610;SDS011;65503;48.534;9.062;2023-08-31T00:59:42;9.15;;;3.78;;
76610;SDS011;65503;48.534;9.062;2023-08-31T01:02:22;10.38;;;4.43;;
76610;SDS011;65503;48.534;9.062;2023-08-31T01:07:59;9.05;;;3.85;;
76610;SDS011;65503;48.534;9.062;2023-08-31T01:10:42;7.45;;;3.85;;
76610;SDS011;65503;48.534;9.062;2023-08-31T01:13:14;8.13;;;4.38;;
76610;SDS011;65503;48.534;9.062;2023-08-31T01:15:45;9.57;;;4.10;;
76610;SDS011;65503;48.534;9.062;2023-08-31T01:18:15;9.13;;;3.60;;
76610;SDS011;65503;48.534;9.062;2023-08-31T01:20:52;7.47;;;3.70;;
76610;SDS011;65503;48.534;9.062;2023-08-31T01:23:27;6.72;;;3.53;;
76610;SDS011;65503;48.534;9.062;2023-08-31T01:26:00;7.47;;;3.55;;
76610;SDS011;65503;48.534;9.062;2023-08-31T01:30:54;10.00;;;4.05;;
76610;SDS011;65503;48.534;9.062;2023-08-31T01:33:21;7.22;;;3.40;;
76610;SDS011;65503;48.534;9.062;2023-08-31T01:35:48;7.35;;;3.40;;
76610;SDS011;65503;48.534;9.062;2023-08-31T01:38:18;7.50;;;3.35;;
76610;SDS011;65503;48.534;9.062;2023-08-31T01:40:55;8.60;;;3.45;;
76610;SDS011;65503;48.534;9.062;2023-08-31T01:43:30;8.38;;;3.58;;
76610;SDS011;65503;48.534;9.062;2023-08-31T01:45:58;8.30;;;3.65;;
76610;SDS011;65503;48.534;9.062;2023-08-31T01:48:24;7.85;;;3.72;;
76610;SDS011;65503;48.534;9.062;2023-08-31T01:50:51;9.52;;;3.97;;
76610;SDS011;65503;48.534;9.062;2023-08-31T01:53:17;7.30;;;3.78;;
76610;SDS011;65503;48.534;9.062;2023-08-31T01:55:44;7.03;;;3.78;;
76610;SDS011;65503;48.534;9.062;2023-08-31T01:58:10;10.60;;;3.70;;
76610;SDS011;65503;48.534;9.062;2023-08-31T02:00:37;11.15;;;4.43;;
76610;SDS011;65503;48.534;9.062;2023-08-31T02:03:04;14.65;;;4.78;;
76610;SDS011;65503;48.534;9.062;2023-08-31T02:05:32;9.77;;;4.65;;
76610;SDS011;65503;48.534;9.062;2023-08-31T02:07:59;9.45;;;4.45;;
76610;SDS011;65503;48.534;9.062;2023-08-31T02:10:25;7.72;;;3.90;;
76610;SDS011;65503;48.534;9.062;2023-08-31T02:15:19;10.77;;;3.30;;
76610;SDS011;65503;48.534;9.062;2023-08-31T02:17:46;9.18;;;4.05;;
76610;SDS011;65503;48.534;9.062;2023-08-31T02:20:12;10.85;;;4.68;;
76610;SDS011;65503;48.534;9.062;2023-08-31T02:22:40;11.15;;;4.60;;
76610;SDS011;65503;48.534;9.062;2023-08-31T02:25:07;12.18;;;4.60;;
76610;SDS011;65503;48.534;9.062;2023-08-31T02:27:34;12.30;;;4.97;;
76610;SDS011;65503;48.534;9.062;2023-08-31T02:30:00;10.57;;;4.95;;
76610;SDS011;65503;48.534;9.062;2023-08-31T02:32:29;10.05;;;4.32;;
76610;SDS011;65503;48.534;9.062;2023-08-31T02:34:55;7.75;;;4.43;;
76610;SDS011;65503;48.534;9.062;2023-08-31T02:37:22;9.63;;;4.35;;
76610;SDS011;65503;48.534;9.062;2023-08-31T02:39:48;8.75;;;4.53;;
76610;SDS011;65503;48.534;9.062;2023-08-31T02:42:15;10.38;;;4.47;;
76610;SDS011;65503;48.534;9.062;2023-08-31T02:44:41;13.00;;;5.20;;
76610;SDS011;65503;48.534;9.062;2023-08-31T02:47:08;8.88;;;4.72;;
76610;SDS011;65503;48.534;9.062;2023-08-31T02:49:34;13.02;;;4.93;;
76610;SDS011;65503;48.534;9.062;2023-08-31T02:52:01;11.48;;;5.32;;
76610;SDS011;65503;48.534;9.062;2023-08-31T02:54:28;12.77;;;4.93;;
76610;SDS011;65503;48.534;9.062;2023-08-31T02:56:54;9.93;;;4.70;;
76610;SDS011;65503;48.534;9.062;2023-08-31T02:59:21;9.77;;;4.90;;
76610;SDS011;65503;48.534;9.062;2023-08-31T03:01:48;14.68;;;5.28;;
76610;SDS011;65503;48.534;9.062;2023-08-31T03:04:14;11.20;;;5.43;;
76610;SDS011;65503;48.534;9.062;2023-08-31T03:06:41;12.77;;;5.95;;
76610;SDS011;65503;48.534;9.062;2023-08-31T03:09:07;10.57;;;5.25;;
76610;SDS011;65503;48.534;9.062;2023-08-31T03:11:34;12.50;;;5.25;;
76610;SDS011;65503;48.534;9.062;2023-08-31T03:14:00;14.52;;;5.88;;
76610;SDS011;65503;48.534;9.062;2023-08-31T03:16:27;11.93;;;5.35;;
76610;SDS011;65503;48.534;9.062;2023-08-31T03:18:53;17.58;;;5.80;;
76610;SDS011;65503;48.534;9.062;2023-08-31T03:21:20;9.98;;;4.90;;
76610;SDS011;65503;48.534;9.062;2023-08-31T03:23:46;11.70;;;5.28;;
76610;SDS011;65503;48.534;9.062;2023-08-31T03:26:13;13.43;;;5.22;;
76610;SDS011;65503;48.534;9.062;2023-08-31T03:28:39;12.70;;;5.05;;
76610;SDS011;65503;48.534;9.062;2023-08-31T03:31:07;9.90;;;5.38;;
76610;SDS011;65503;48.534;9.062;2023-08-31T03:33:34;11.88;;;5.50;;
76610;SDS011;65503;48.534;9.062;2023-08-31T03:36:01;13.13;;;5.88;;
76610;SDS011;65503;48.534;9.062;2023-08-31T03:38:31;11.70;;;5.47;;
76610;SDS011;65503;48.534;9.062;2023-08-31T03:40:58;9.63;;;5.20;;
76610;SDS011;65503;48.534;9.062;2023-08-31T03:43:24;9.25;;;5.22;;
76610;SDS011;65503;48.534;9.062;2023-08-31T03:45:54;12.23;;;5.15;;
76610;SDS011;65503;48.534;9.062;2023-08-31T03:48:24;8.20;;;3.97;;
76610;SDS011;65503;48.534;9.062;2023-08-31T03:50:51;9.88;;;4.40;;
76610;SDS011;65503;48.534;9.062;2023-08-31T03:53:19;8.98;;;4.68;;
76610;SDS011;65503;48.534;9.062;2023-08-31T03:55:46;7.47;;;4.45;;
76610;SDS011;65503;48.534;9.062;2023-08-31T03:58:13;9.35;;;4.90;;
76610;SDS011;65503;48.534;9.062;2023-08-31T04:00:39;11.93;;;4.82;;
76610;SDS011;65503;48.534;9.062;2023-08-31T04:03:06;9.30;;;5.10;;
76610;SDS011;65503;48.534;9.062;2023-08-31T04:05:33;12.45;;;5.05;;
76610;SDS011;65503;48.534;9.062;2023-08-31T04:08:00;10.85;;;5.15;;
76610;SDS011;65503;48.534;9.062;2023-08-31T04:10:27;10.65;;;5.43;;
76610;SDS011;65503;48.534;9.062;2023-08-31T04:12:55;14.25;;;5.03;;
76610;SDS011;65503;48.534;9.062;2023-08-31T04:15:22;13.30;;;5.10;;
76610;SDS011;65503;48.534;9.062;2023-08-31T04:17:49;9.68;;;4.57;;
76610;SDS011;65503;48.534;9.062;2023-08-31T04:20:18;9.40;;;4.03;;
76610;SDS011;65503;48.534;9.062;2023-08-31T04:22:45;8.93;;;4.63;;
76610;SDS011;65503;48.534;9.062;2023-08-31T04:25:11;7.45;;;4.25;;
76610;SDS011;65503;48.534;9.062;2023-08-31T04:27:38;7.53;;;4.05;;
76610;SDS011;65503;48.534;9.062;2023-08-31T04:30:06;9.02;;;4.18;;
76610;SDS011;65503;48.534;9.062;2023-08-31T04:32:33;9.57;;;4.45;;
76610;SDS011;65503;48.534;9.062;2023-08-31T04:37:29;8.50;;;4.32;;
76610;SDS011;65503;48.534;9.062;2023-08-31T04:39:55;7.38;;;4.20;;
76610;SDS011;65503;48.534;9.062;2023-08-31T04:42:22;9.77;;;4.40;;
76610;SDS011;65503;48.534;9.062;2023-08-31T04:44:48;9.40;;;4.28;;
76610;SDS011;65503;48.534;9.062;2023-08-31T04:47:15;9.43;;;5.35;;
76610;SDS011;65503;48.534;9.062;2023-08-31T04:49:41;11.88;;;6.13;;
76610;SDS011;65503;48.534;9.062;2023-08-31T04:52:08;11.50;;;5.15;;
76610;SDS011;65503;48.534;9.062;2023-08-31T04:54:35;10.48;;;4.65;;
76610;SDS011;65503;48.534;9.062;2023-08-31T04:57:01;8.48;;;4.20;;
76610;SDS011;65503;48.534;9.062;2023-08-31T05:01:55;7.80;;;4.07;;
76610;SDS011;65503;48.534;9.062;2023-08-31T05:04:22;10.27;;;3.90;;
76610;SDS011;65503;48.534;9.062;2023-08-31T05:06:49;7.95;;;4.38;;
76610;SDS011;65503;48.534;9.062;2023-08-31T05:09:16;9.88;;;4.80;;
76610;SDS011;65503;48.534;9.062;2023-08-31T05:11:42;9.88;;;4.85;;
76610;SDS011;65503;48.534;9.062;2023-08-31T05:14:09;9.60;;;4.90;;
76610;SDS011;65503;48.534;9.062;2023-08-31T05:16:36;10.70;;;5.30;;
76610;SDS011;65503;48.534;9.062;2023-08-31T05:19:02;11.73;;;5.28;;
76610;SDS011;65503;48.534;9.062;2023-08-31T05:21:29;11.32;;;5.32;;
76610;SDS011;65503;48.534;9.062;2023-08-31T05:23:56;10.73;;;5.22;;
76610;SDS011;65503;48.534;9.062;2023-08-31T05:26:23;10.77;;;5.38;;
76610;SDS011;65503;48.534;9.062;2023-08-31T05:28:49;10.95;;;5.68;;
76610;SDS011;65503;48.534;9.062;2023-08-31T05:31:16;9.43;;;5.20;;
76610;SDS011;65503;48.534;9.062;2023-08-31T05:33:42;8.63;;;4.80;;
76610;SDS011;65503;48.534;9.062;2023-08-31T05:36:09;9.23;;;4.82;;
76610;SDS011;65503;48.534;9.062;2023-08-31T05:38:36;14.88;;;6.43;;
76610;SDS011;65503;48.534;9.062;2023-08-31T05:41:06;13.80;;;5.85;;
76610;SDS011;65503;48.534;9.062;2023-08-31T05:43:34;10.88;;;5.57;;
76610;SDS011;65503;48.534;9.062;2023-08-31T05:46:02;11.70;;;4.70;;
76610;SDS011;65503;48.534;9.062;2023-08-31T05:48:29;7.68;;;4.13;;
76610;SDS011;65503;48.534;9.062;2023-08-31T05:50:56;9.30;;;4.50;;
76610;SDS011;65503;48.534;9.062;2023-08-31T05:53:22;7.25;;;4.32;;
76610;SDS011;65503;48.534;9.062;2023-08-31T05:55:49;12.32;;;4.63;;
76610;SDS011;65503;48.534;9.062;2023-08-31T05:58:16;9.18;;;4.20;;
76610;SDS011;65503;48.534;9.062;2023-08-31T06:00:42;9.20;;;4.70;;
76610;SDS011;65503;48.534;9.062;2023-08-31T06:03:09;9.32;;;4.55;;
76610;SDS011;65503;48.534;9.062;2023-08-31T06:05:37;6.28;;;3.78;;
76610;SDS011;65503;48.534;9.062;2023-08-31T06:08:04;10.73;;;4.25;;
76610;SDS011;65503;48.534;9.062;2023-08-31T06:10:31;7.65;;;3.47;;
76610;SDS011;65503;48.534;9.062;2023-08-31T06:12:58;6.30;;;3.38;;
76610;SDS011;65503;48.534;9.062;2023-08-31T06:15:24;7.38;;;3.38;;
76610;SDS011;65503;48.534;9.062;2023-08-31T06:17:50;6.28;;;3.00;;
76610;SDS011;65503;48.534;9.062;2023-08-31T06:20:17;5.35;;;2.75;;
76610;SDS011;65503;48.534;9.062;2023-08-31T06:22:43;5.22;;;3.03;;
76610;SDS011;65503;48.534;9.062;2023-08-31T06:25:10;7.30;;;3.15;;
76610;SDS011;65503;48.534;9.062;2023-08-31T06:27:37;9.25;;;3.30;;
76610;SDS011;65503;48.534;9.062;2023-08-31T06:30:04;7.13;;;2.75;;
76610;SDS011;65503;48.534;9.062;2023-08-31T06:32:32;6.45;;;2.60;;
76610;SDS011;65503;48.534;9.062;2023-08-31T06:34:58;4.88;;;2.58;;
76610;SDS011;65503;48.534;9.062;2023-08-31T06:37:25;6.07;;;2.85;;
76610;SDS011;65503;48.534;9.062;2023-08-31T06:39:51;7.05;;;2.50;;
76610;SDS011;65503;48.534;9.062;2023-08-31T06:42:18;6.78;;;2.53;;
76610;SDS011;65503;48.534;9.062;2023-08-31T06:44:44;6.78;;;2.65;;
76610;SDS011;65503;48.534;9.062;2023-08-31T06:49:40;7.63;;;2.22;;
76610;SDS011;65503;48.534;9.062;2023-08-31T06:52:06;5.43;;;2.30;;
76610;SDS011;65503;48.534;9.062;2023-08-31T06:54:54;5.68;;;2.22;;
76610;SDS011;65503;48.534;9.062;2023-08-31T06:57:23;6.75;;;2.03;;
76610;SDS011;65503;48.534;9.062;2023-08-31T06:59:50;3.42;;;1.77;;
76610;SDS011;65503;48.534;9.062;2023-08-31T07:02:17;4.72;;;1.77;;
76610;SDS011;65503;48.534;9.062;2023-08-31T07:04:45;8.18;;;1.80;;
76610;SDS011;65503;48.534;9.062;2023-08-31T07:07:12;5.70;;;1.73;;
76610;SDS011;65503;48.534;9.062;2023-08-31T07:09:42;7.78;;;1.98;;
76610;SDS011;65503;48.534;9.062;2023-08-31T07:12:10;3.70;;;1.83;;
76610;SDS011;65503;48.534;9.062;2023-08-31T07:14:37;5.53;;;1.85;;
76610;SDS011;65503;48.534;9.062;2023-08-31T07:19:30;4.40;;;1.65;;
76610;SDS011;65503;48.534;9.062;2023-08-31T07:21:57;4.28;;;1.52;;
76610;SDS011;65503;48.534;9.062;2023-08-31T07:24:24;6.50;;;1.58;;
76610;SDS011;65503;48.534;9.062;2023-08-31T07:26:50;3.97;;;1.52;;
76610;SDS011;65503;48.534;9.062;2023-08-31T07:29:17;5.65;;;1.50;;
76610;SDS011;65503;48.534;9.062;2023-08-31T07:31:43;5.28;;;1.52;;
76610;SDS011;65503;48.534;9.062;2023-08-31T07:34:10;5.28;;;1.70;;
76610;SDS011;65503;48.534;9.062;2023-08-31T07:36:36;12.32;;;2.03;;
76610;SDS011;65503;48.534;9.062;2023-08-31T07:39:03;3.83;;;1.50;;
76610;SDS011;65503;48.534;9.062;2023-08-31T07:41:31;6.30;;;1.83;;
76610;SDS011;65503;48.534;9.062;2023-08-31T07:43:57;6.05;;;1.85;;
76610;SDS011;65503;48.534;9.062;2023-08-31T07:46:30;3.50;;;1.35;;
76610;SDS011;65503;48.534;9.062;2023-08-31T07:48:57;4.55;;;1.40;;
76610;SDS011;65503;48.534;9.062;2023-08-31T07:51:24;4.47;;;1.55;;
76610;SDS011;65503;48.534;9.062;2023-08-31T07:53:52;4.50;;;1.70;;
76610;SDS011;65503;48.534;9.062;2023-08-31T07:56:19;3.92;;;1.42;;
76610;SDS011;65503;48.534;9.062;2023-08-31T07:58:45;7.38;;;2.25;;
76610;SDS011;65503;48.534;9.062;2023-08-31T08:01:12;6.55;;;1.95;;
76610;SDS011;65503;48.534;9.062;2023-08-31T08:03:38;3.55;;;1.58;;
76610;SDS011;65503;48.534;9.062;2023-08-31T08:06:05;3.55;;;1.40;;
76610;SDS011;65503;48.534;9.062;2023-08-31T08:08:32;4.22;;;1.50;;
76610;SDS011;65503;48.534;9.062;2023-08-31T08:10:58;4.28;;;1.23;;
76610;SDS011;65503;48.534;9.062;2023-08-31T08:13:26;3.67;;;1.38;;
76610;SDS011;65503;48.534;9.062;2023-08-31T08:15:52;7.00;;;1.80;;
76610;SDS011;65503;48.534;9.062;2023-08-31T08:18:19;4.93;;;1.60;;
76610;SDS011;65503;48.534;9.062;2023-08-31T08:20:50;3.65;;;1.30;;
76610;SDS011;65503;48.534;9.062;2023-08-31T08:23:17;6.72;;;1.80;;
76610;SDS011;65503;48.534;9.062;2023-08-31T08:25:43;4.57;;;1.67;;
76610;SDS011;65503;48.534;9.062;2023-08-31T08:28:10;6.15;;;1.65;;
76610;SDS011;65503;48.534;9.062;2023-08-31T08:33:03;3.80;;;1.52;;
76610;SDS011;65503;48.534;9.062;2023-08-31T08:35:30;5.22;;;1.83;;
76610;SDS011;65503;48.534;9.062;2023-08-31T08:37:56;4.68;;;1.65;;
76610;SDS011;65503;48.534;9.062;2023-08-31T08:40:24;5.50;;;1.70;;
76610;SDS011;65503;48.534;9.062;2023-08-31T08:42:51;4.10;;;1.38;;
76610;SDS011;65503;48.534;9.062;2023-08-31T08:45:19;4.88;;;1.40;;
76610;SDS011;65503;48.534;9.062;2023-08-31T08:47:50;6.82;;;1.45;;
76610;SDS011;65503;48.534;9.062;2023-08-31T08:50:18;3.83;;;1.52;;
76610;SDS011;65503;48.534;9.062;2023-08-31T08:52:47;3.63;;;1.50;;
76610;SDS011;65503;48.534;9.062;2023-08-31T08:55:14;6.38;;;1.60;;
76610;SDS011;65503;48.534;9.062;2023-08-31T08:57:41;4.15;;;1.45;;
76610;SDS011;65503;48.534;9.062;2023-08-31T09:00:08;6.32;;;1.45;;
76610;SDS011;65503;48.534;9.062;2023-08-31T09:02:37;5.25;;;1.70;;
76610;SDS011;65503;48.534;9.062;2023-08-31T09:05:03;5.00;;;1.48;;
76610;SDS011;65503;48.534;9.062;2023-08-31T09:07:30;6.25;;;1.60;;
76610;SDS011;65503;48.534;9.062;2023-08-31T09:10:02;5.75;;;1.55;;
76610;SDS011;65503;48.534;9.062;2023-08-31T09:12:30;5.13;;;1.60;;
76610;SDS011;65503;48.534;9.062;2023-08-31T09:15:00;4.90;;;1.52;;
76610;SDS011;65503;48.534;9.062;2023-08-31T09:17:37;4.15;;;1.20;;
76610;SDS011;65503;48.534;9.062;2023-08-31T09:20:08;5.57;;;1.52;;
76610;SDS011;65503;48.534;9.062;2023-08-31T09:22:35;5.32;;;1.65;;
76610;SDS011;65503;48.534;9.062;2023-08-31T09:25:02;6.30;;;1.70;;
76610;SDS011;65503;48.534;9.062;2023-08-31T09:27:30;4.45;;;1.38;;
76610;SDS011;65503;48.534;9.062;2023-08-31T09:29:59;5.07;;;1.60;;
76610;SDS011;65503;48.534;9.062;2023-08-31T09:32:26;5.97;;;1.80;;
76610;SDS011;65503;48.534;9.062;2023-08-31T09:34:53;5.43;;;1.70;;
76610;SDS011;65503;48.534;9.062;2023-08-31T09:37:39;3.83;;;1.50;;
76610;SDS011;65503;48.534;9.062;2023-08-31T09:40:06;5.68;;;2.17;;
76610;SDS011;65503;48.534;9.062;2023-08-31T09:42:36;7.28;;;2.25;;
76610;SDS011;65503;48.534;9.062;2023-08-31T09:45:06;4.55;;;1.58;;
76610;SDS011;65503;48.534;9.062;2023-08-31T09:47:34;4.32;;;1.45;;
76610;SDS011;65503;48.534;9.062;2023-08-31T09:50:02;5.88;;;1.73;;
76610;SDS011;65503;48.534;9.062;2023-08-31T09:52:29;6.90;;;1.92;;
76610;SDS011;65503;48.534;9.062;2023-08-31T09:54:56;5.03;;;2.10;;
76610;SDS011;65503;48.534;9.062;2023-08-31T09:57:24;3.83;;;1.50;;
76610;SDS011;65503;48.534;9.062;2023-08-31T10:00:10;3.60;;;1.60;;
76610;SDS011;65503;48.534;9.062;2023-08-31T10:02:42;5.20;;;1.60;;
76610;SDS011;65503;48.534;9.062;2023-08-31T10:05:10;5.07;;;1.52;;
76610;SDS011;65503;48.534;9.062;2023-08-31T10:07:37;6.82;;;1.48;;
76610;SDS011;65503;48.534;9.062;2023-08-31T10:10:04;3.15;;;1.52;;
76610;SDS011;65503;48.534;9.062;2023-08-31T10:12:31;3.95;;;1.42;;
76610;SDS011;65503;48.534;9.062;2023-08-31T10:15:00;5.75;;;1.95;;
76610;SDS011;65503;48.534;9.062;2023-08-31T10:17:26;7.03;;;1.67;;
76610;SDS011;65503;48.534;9.062;2023-08-31T10:19:54;6.30;;;1.85;;
76610;SDS011;65503;48.534;9.062;2023-08-31T10:22:21;4.25;;;1.67;;
76610;SDS011;65503;48.534;9.062;2023-08-31T10:25:01;5.43;;;1.48;;
76610;SDS011;65503;48.534;9.062;2023-08-31T10:27:36;8.27;;;1.88;;
76610;SDS011;65503;48.534;9.062;2023-08-31T10:30:13;5.07;;;1.77;;
76610;SDS011;65503;48.534;9.062;2023-08-31T10:33:01;8.52;;;2.00;;
76610;SDS011;65503;48.534;9.062;2023-08-31T10:38:17;5.63;;;1.63;;
76610;SDS011;65503;48.534;9.062;2023-08-31T10:43:44;4.22;;;1.60;;
76610;SDS011;65503;48.534;9.062;2023-08-31T10:51:35;5.28;;;1.58;;
76610;SDS011;65503;48.534;9.062;2023-08-31T10:54:07;5.47;;;1.67;;
76610;SDS011;65503;48.534;9.062;2023-08-31T10:59:40;4.80;;;1.67;;
76610;SDS011;65503;48.534;9.062;2023-08-31T11:04:59;6.63;;;1.70;;
76610;SDS011;65503;48.534;9.062;2023-08-31T11:07:30;6.15;;;1.77;;
76610;SDS011;65503;48.534;9.062;2023-08-31T11:13:00;6.53;;;1.85;;
76610;SDS011;65503;48.534;9.062;2023-08-31T11:15:27;6.25;;;1.55;;
76610;SDS011;65503;48.534;9.062;2023-08-31T11:17:56;5.93;;;1.60;;
76610;SDS011;65503;48.534;9.062;2023-08-31T11:20:23;5.95;;;1.73;;
76610;SDS011;65503;48.534;9.062;2023-08-31T11:22:54;2.90;;;1.25;;
76610;SDS011;65503;48.534;9.062;2023-08-31T11:25:22;4.30;;;1.45;;
76610;SDS011;65503;48.534;9.062;2023-08-31T11:28:01;5.35;;;1.58;;
76610;SDS011;65503;48.534;9.062;2023-08-31T11:30:32;4.53;;;1.35;;
76610;SDS011;65503;48.534;9.062;2023-08-31T11:33:03;6.30;;;1.85;;
76610;SDS011;65503;48.534;9.062;2023-08-31T11:35:38;5.35;;;1.90;;
76610;SDS011;65503;48.534;9.062;2023-08-31T11:38:07;7.20;;;1.60;;
76610;SDS011;65503;48.534;9.062;2023-08-31T11:40:34;5.72;;;1.80;;
76610;SDS011;65503;48.534;9.062;2023-08-31T11:43:02;6.97;;;1.73;;
76610;SDS011;65503;48.534;9.062;2023-08-31T11:45:30;4.25;;;1.40;;
76610;SDS011;65503;48.534;9.062;2023-08-31T11:47:58;5.63;;;1.85;;
76610;SDS011;65503;48.534;9.062;2023-08-31T11:50:25;4.95;;;1.40;;
76610;SDS011;65503;48.534;9.062;2023-08-31T11:52:52;4.53;;;1.67;;
76610;SDS011;65503;48.534;9.062;2023-08-31T11:55:19;5.55;;;1.70;;
76610;SDS011;65503;48.534;9.062;2023-08-31T11:57:50;4.07;;;1.70;;
76610;SDS011;65503;48.534;9.062;2023-08-31T12:00:18;5.47;;;1.50;;
76610;SDS011;65503;48.534;9.062;2023-08-31T12:02:58;5.03;;;1.70;;
76610;SDS011;65503;48.534;9.062;2023-08-31T12:05:28;6.22;;;1.98;;
76610;SDS011;65503;48.534;9.062;2023-08-31T12:10:25;5.68;;;1.67;;
76610;SDS011;65503;48.534;9.062;2023-08-31T12:12:52;5.68;;;2.30;;
76610;SDS011;65503;48.534;9.062;2023-08-31T12:15:19;7.15;;;2.10;;
76610;SDS011;65503;48.534;9.062;2023-08-31T12:17:48;6.78;;;1.60;;
76610;SDS011;65503;48.534;9.062;2023-08-31T12:20:24;6.75;;;1.83;;
76610;SDS011;65503;48.534;9.062;2023-08-31T12:22:55;6.28;;;1.50;;
76610;SDS011;65503;48.534;9.062;2023-08-31T12:25:22;4.43;;;1.50;;
76610;SDS011;65503;48.534;9.062;2023-08-31T12:27:48;4.85;;;1.67;;
76610;SDS011;65503;48.534;9.062;2023-08-31T12:30:16;6.60;;;1.70;;
76610;SDS011;65503;48.534;9.062;2023-08-31T12:32:42;5.60;;;1.77;;
76610;SDS011;65503;48.534;9.062;2023-08-31T12:35:09;4.07;;;1.55;;
76610;SDS011;65503;48.534;9.062;2023-08-31T12:37:37;3.72;;;1.50;;
76610;SDS011;65503;48.534;9.062;2023-08-31T12:40:05;4.28;;;1.35;;
76610;SDS011;65503;48.534;9.062;2023-08-31T12:42:33;8.32;;;2.38;;
76610;SDS011;65503;48.534;9.062;2023-08-31T12:45:00;5.13;;;1.73;;
76610;SDS011;65503;48.534;9.062;2023-08-31T12:47:26;7.60;;;1.60;;
76610;SDS011;65503;48.534;9.062;2023-08-31T12:49:53;4.07;;;1.60;;
76610;SDS011;65503;48.534;9.062;2023-08-31T12:52:19;6.28;;;1.60;;
76610;SDS011;65503;48.534;9.062;2023-08-31T12:54:46;4.30;;;1.40;;
76610;SDS011;65503;48.534;9.062;2023-08-31T12:57:12;7.95;;;2.17;;
76610;SDS011;65503;48.534;9.062;2023-08-31T12:59:39;6.20;;;1.60;;
76610;SDS011;65503;48.534;9.062;2023-08-31T13:02:06;5.32;;;1.40;;
76610;SDS011;65503;48.534;9.062;2023-08-31T13:04:37;9.93;;;2.40;;
76610;SDS011;65503;48.534;9.062;2023-08-31T13:07:06;5.22;;;1.80;;
76610;SDS011;65503;48.534;9.062;2023-08-31T13:09:38;4.72;;;1.65;;
76610;SDS011;65503;48.534;9.062;2023-08-31T13:12:15;4.43;;;1.88;;
76610;SDS011;65503;48.534;9.062;2023-08-31T13:14:43;4.20;;;1.40;;
76610;SDS011;65503;48.534;9.062;2023-08-31T13:17:10;5.28;;;1.90;;
76610;SDS011;65503;48.534;9.062;2023-08-31T13:19:37;5.53;;;1.50;;
76610;SDS011;65503;48.534;9.062;2023-08-31T13:22:03;9.00;;;1.90;;
76610;SDS011;65503;48.534;9.062;2023-08-31T13:24:30;5.60;;;1.70;;
76610;SDS011;65503;48.534;9.062;2023-08-31T13:26:56;5.10;;;1.80;;
76610;SDS011;65503;48.534;9.062;2023-08-31T13:29:23;5.53;;;1.85;;
76610;SDS011;65503;48.534;9.062;2023-08-31T13:31:49;5.03;;;1.73;;
76610;SDS011;65503;48.534;9.062;2023-08-31T13:34:16;4.90;;;1.67;;
76610;SDS011;65503;48.534;9.062;2023-08-31T13:36:45;6.07;;;1.67;;
76610;SDS011;65503;48.534;9.062;2023-08-31T13:39:12;4.43;;;1.40;;
76610;SDS011;65503;48.534;9.062;2023-08-31T13:41:39;7.35;;;1.77;;
76610;SDS011;65503;48.534;9.062;2023-08-31T13:44:05;4.38;;;1.50;;
76610;SDS011;65503;48.534;9.062;2023-08-31T13:46:32;5.03;;;1.75;;
76610;SDS011;65503;48.534;9.062;2023-08-31T13:48:58;5.97;;;1.80;;
76610;SDS011;65503;48.534;9.062;2023-08-31T13:51:25;6.25;;;1.98;;
76610;SDS011;65503;48.534;9.062;2023-08-31T13:53:51;7.20;;;1.77;;
76610;SDS011;65503;48.534;9.062;2023-08-31T13:56:18;4.28;;;1.80;;
76610;SDS011;65503;48.534;9.062;2023-08-31T13:58:44;5.30;;;1.63;;
76610;SDS011;65503;48.534;9.062;2023-08-31T14:01:11;5.13;;;1.80;;
76610;SDS011;65503;48.534;9.062;2023-08-31T14:03:39;5.45;;;2.05;;
76610;SDS011;65503;48.534;9.062;2023-08-31T14:06:06;5.75;;;1.80;;
76610;SDS011;65503;48.534;9.062;2023-08-31T14:08:34;5.00;;;1.83;;
76610;SDS011;65503;48.534;9.062;2023-08-31T14:11:01;9.20;;;2.00;;
76610;SDS011;65503;48.534;9.062;2023-08-31T14:13:27;4.88;;;1.85;;
76610;SDS011;65503;48.534;9.062;2023-08-31T14:15:54;7.20;;;1.65;;
76610;SDS011;65503;48.534;9.062;2023-08-31T14:18:20;7.47;;;1.65;;
76610;SDS011;65503;48.534;9.062;2023-08-31T14:20:48;9.30;;;1.88;;
76610;SDS011;65503;48.534;9.062;2023-08-31T14:23:14;4.78;;;1.80;;
76610;SDS011;65503;48.534;9.062;2023-08-31T14:25:42;5.15;;;1.52;;
76610;SDS011;65503;48.534;9.062;2023-08-31T14:28:08;5.13;;;1.92;;
76610;SDS011;65503;48.534;9.062;2023-08-31T14:30:35;5.10;;;1.83;;
76610;SDS011;65503;48.534;9.062;2023-08-31T14:33:03;6.03;;;1.80;;
76610;SDS011;65503;48.534;9.062;2023-08-31T14:35:31;6.65;;;1.77;;
76610;SDS011;65503;48.534;9.062;2023-08-31T14:37:57;5.70;;;1.52;;
76610;SDS011;65503;48.534;9.062;2023-08-31T14:40:25;4.38;;;1.70;;
76610;SDS011;65503;48.534;9.062;2023-08-31T14:42:51;4.85;;;1.70;;
76610;SDS011;65503;48.534;9.062;2023-08-31T14:45:20;6.60;;;1.60;;
76610;SDS011;65503;48.534;9.062;2023-08-31T14:47:47;6.95;;;1.88;;
76610;SDS011;65503;48.534;9.062;2023-08-31T14:50:13;5.50;;;1.70;;
76610;SDS011;65503;48.534;9.062;2023-08-31T14:52:40;4.38;;;1.67;;
76610;SDS011;65503;48.534;9.062;2023-08-31T14:55:06;8.98;;;2.25;;
76610;SDS011;65503;48.534;9.062;2023-08-31T14:57:33;5.63;;;2.13;;
76610;SDS011;65503;48.534;9.062;2023-08-31T15:00:00;7.00;;;1.85;;
76610;SDS011;65503;48.534;9.062;2023-08-31T15:02:29;8.73;;;2.33;;
76610;SDS011;65503;48.534;9.062;2023-08-31T15:04:55;6.40;;;1.52;;
76610;SDS011;65503;48.534;9.062;2023-08-31T15:07:22;8.38;;;2.25;;
76610;SDS011;65503;48.534;9.062;2023-08-31T15:09:48;4.97;;;1.67;;
76610;SDS011;65503;48.534;9.062;2023-08-31T15:12:16;6.90;;;1.70;;
76610;SDS011;65503;48.534;9.062;2023-08-31T15:14:42;9.00;;;2.60;;
76610;SDS011;65503;48.534;9.062;2023-08-31T15:17:09;6.07;;;1.90;;
76610;SDS011;65503;48.534;9.062;2023-08-31T15:19:35;5.38;;;1.65;;
76610;SDS011;65503;48.534;9.062;2023-08-31T15:22:02;7.75;;;1.80;;
76610;SDS011;65503;48.534;9.062;2023-08-31T15:24:30;7.90;;;1.80;;
76610;SDS011;65503;48.534;9.062;2023-08-31T15:26:56;4.53;;;1.48;;
76610;SDS011;65503;48.534;9.062;2023-08-31T15:29:25;5.93;;;2.30;;
76610;SDS011;65503;48.534;9.062;2023-08-31T15:31:53;6.32;;;1.70;;
76610;SDS011;65503;48.534;9.062;2023-08-31T15:34:20;8.40;;;1.80;;
76610;SDS011;65503;48.534;9.062;2023-08-31T15:36:46;8.65;;;2.10;;